createdAt,value
2018-02-17T00:00:14.476Z,37.87
2018-02-17T00:02:07.281Z,37.96
2018-02-17T00:03:07.198Z,37.96
2018-02-17T00:04:59.977Z,37.68
2018-02-17T00:05:59.922Z,37.77
2018-02-17T00:07:52.733Z,37.58
2018-02-17T00:08:52.648Z,37.96
2018-02-17T00:10:45.426Z,37.87
2018-02-17T00:11:45.374Z,38.06
2018-02-17T00:13:38.182Z,38.06
2018-02-17T00:14:38.097Z,38.35
2018-02-17T00:16:30.878Z,38.43
2018-02-17T00:17:30.823Z,38.24
2018-02-17T00:19:23.633Z,38.33
2018-02-17T00:20:23.553Z,38.33
2018-02-17T00:22:16.328Z,38.33
2018-02-17T00:23:16.277Z,38.62
2018-02-17T00:25:09.083Z,38.62
2018-02-17T00:26:09.007Z,38.60
2018-02-17T00:28:01.778Z,38.53
2018-02-17T00:29:01.728Z,38.53
2018-02-17T00:30:54.532Z,38.43
2018-02-17T00:31:54.449Z,38.33
2018-02-17T00:33:47.228Z,38.79
2018-02-17T00:34:47.177Z,38.79
2018-02-17T00:36:39.987Z,38.70
2018-02-17T00:37:39.902Z,38.79
2018-02-17T00:39:32.684Z,38.70
2018-02-17T00:40:32.630Z,38.60
2018-02-17T00:42:25.442Z,38.70
2018-02-17T00:43:25.359Z,38.60
2018-02-17T00:45:18.136Z,38.99
2018-02-17T00:46:18.082Z,38.99
2018-02-17T00:48:10.895Z,38.99
2018-02-17T00:49:10.809Z,38.99
2018-02-17T00:51:03.588Z,39.18
2018-02-17T00:52:03.532Z,39.28
2018-02-17T00:53:56.340Z,39.18
2018-02-17T00:54:56.256Z,39.16
2018-02-17T00:56:49.042Z,39.54
2018-02-17T00:57:48.979Z,39.54
2018-02-17T00:59:41.786Z,39.54
2018-02-17T01:00:41.702Z,39.16
2018-02-17T01:02:34.478Z,39.64
2018-02-17T01:03:34.424Z,39.74
2018-02-17T01:05:27.230Z,39.45
2018-02-17T01:06:27.146Z,39.45
2018-02-17T01:08:19.929Z,40.12
2018-02-17T01:09:19.875Z,39.74
2018-02-17T01:11:12.683Z,39.64
2018-02-17T01:12:12.600Z,39.91
2018-02-17T01:14:05.375Z,39.81
2018-02-17T01:15:05.321Z,39.81
2018-02-17T01:16:58.129Z,40.11
2018-02-17T01:17:58.044Z,40.11
2018-02-17T01:19:50.821Z,40.30
2018-02-17T01:20:50.766Z,40.30
2018-02-17T01:22:43.573Z,40.11
2018-02-17T01:23:43.494Z,40.20
2018-02-17T01:25:36.270Z,40.11
2018-02-17T01:26:36.213Z,40.11
2018-02-17T01:28:29.020Z,40.39
2018-02-17T01:29:28.940Z,40.68
2018-02-17T01:31:21.712Z,40.58
2018-02-17T01:32:21.655Z,40.11
2018-02-17T01:34:14.463Z,40.49
2018-02-17T01:35:14.378Z,40.47
2018-02-17T01:37:07.153Z,40.39
2018-02-17T01:38:07.097Z,40.47
2018-02-17T01:39:59.910Z,40.37
2018-02-17T01:40:59.826Z,40.37
2018-02-17T01:42:52.602Z,40.47
2018-02-17T01:43:52.547Z,40.47
2018-02-17T01:45:45.358Z,40.49
2018-02-17T01:46:45.274Z,40.37
2018-02-17T01:48:38.048Z,40.37
2018-02-17T01:49:37.992Z,40.47
2018-02-17T01:51:30.801Z,40.37
2018-02-17T01:52:30.716Z,40.56
2018-02-17T01:54:23.492Z,40.47
2018-02-17T01:55:23.439Z,40.66
2018-02-17T01:57:16.241Z,40.56
2018-02-17T01:58:16.156Z,40.56
2018-02-17T02:00:08.931Z,40.56
2018-02-17T02:01:08.876Z,40.66
2018-02-17T02:03:01.679Z,40.28
2018-02-17T02:04:01.595Z,40.28
2018-02-17T02:05:54.370Z,40.47
2018-02-17T02:06:54.311Z,40.37
2018-02-17T02:08:47.115Z,40.47
2018-02-17T02:09:47.029Z,40.47
2018-02-17T02:11:39.806Z,40.47
2018-02-17T02:12:39.752Z,40.47
2018-02-17T02:14:32.560Z,40.28
2018-02-17T02:15:32.471Z,40.47
2018-02-17T02:17:25.245Z,40.66
2018-02-17T02:18:25.189Z,40.66
2018-02-17T02:20:17.995Z,40.56
2018-02-17T02:21:17.909Z,40.66
2018-02-17T02:23:10.688Z,40.28
2018-02-17T02:24:10.635Z,40.47
2018-02-17T02:26:03.438Z,40.83
2018-02-17T02:27:03.353Z,40.35
2018-02-17T02:28:56.128Z,40.76
2018-02-17T02:29:56.070Z,40.64
2018-02-17T02:31:48.880Z,40.85
2018-02-17T02:32:48.795Z,40.64
2018-02-17T02:34:41.571Z,40.83
2018-02-17T02:35:41.517Z,40.73
2018-02-17T02:37:34.319Z,40.93
2018-02-17T02:38:34.231Z,40.93
2018-02-17T02:40:27.006Z,40.73
2018-02-17T02:41:26.951Z,40.83
2018-02-17T02:43:19.755Z,40.73
2018-02-17T02:44:19.666Z,40.93
2018-02-17T02:46:12.440Z,40.83
2018-02-17T02:47:12.385Z,40.83
2018-02-17T02:49:05.195Z,40.93
2018-02-17T02:50:05.103Z,40.93
2018-02-17T02:51:57.880Z,40.93
2018-02-17T02:52:57.826Z,40.93
2018-02-17T02:54:50.627Z,40.93
2018-02-17T02:55:50.541Z,40.83
2018-02-17T02:57:43.315Z,40.83
2018-02-17T02:58:43.260Z,40.93
2018-02-17T03:00:36.063Z,40.93
2018-02-17T03:01:35.978Z,40.93
2018-02-17T03:03:28.752Z,40.93
2018-02-17T03:04:28.697Z,41.02
2018-02-17T03:06:21.502Z,41.02
2018-02-17T03:07:21.419Z,41.02
2018-02-17T03:09:14.188Z,40.83
2018-02-17T03:10:14.132Z,41.12
2018-02-17T03:12:06.934Z,40.91
2018-02-17T03:13:06.848Z,41.02
2018-02-17T03:14:59.642Z,41.00
2018-02-17T03:15:59.566Z,41.22
2018-02-17T03:17:52.369Z,41.29
2018-02-17T03:18:52.282Z,41.31
2018-02-17T03:20:45.057Z,41.20
2018-02-17T03:21:44.999Z,41.29
2018-02-17T03:23:37.805Z,41.10
2018-02-17T03:24:37.719Z,41.29
2018-02-17T03:26:30.488Z,41.20
2018-02-17T03:27:30.433Z,41.00
2018-02-17T03:29:23.238Z,41.10
2018-02-17T03:30:23.153Z,41.02
2018-02-17T03:32:15.927Z,40.91
2018-02-17T03:33:15.871Z,41.10
2018-02-17T03:35:08.673Z,41.00
2018-02-17T03:36:08.588Z,41.00
2018-02-17T03:38:01.362Z,41.00
2018-02-17T03:39:01.308Z,41.29
2018-02-17T03:40:54.113Z,40.91
2018-02-17T03:41:54.028Z,41.20
2018-02-17T03:43:46.799Z,41.29
2018-02-17T03:44:46.743Z,41.20
2018-02-17T03:46:39.545Z,41.20
2018-02-17T03:47:39.460Z,41.29
2018-02-17T03:49:32.232Z,41.20
2018-02-17T03:50:32.177Z,41.10
2018-02-17T03:52:24.982Z,41.10
2018-02-17T03:53:24.894Z,41.20
2018-02-17T03:55:17.668Z,41.20
2018-02-17T03:56:17.610Z,41.00
2018-02-17T03:58:10.414Z,41.10
2018-02-17T03:59:10.331Z,40.81
2018-02-17T04:01:03.102Z,41.20
2018-02-17T04:02:03.048Z,41.29
2018-02-17T04:03:55.850Z,41.29
2018-02-17T04:04:55.762Z,41.29
2018-02-17T04:06:48.535Z,41.10
2018-02-17T04:07:48.478Z,41.39
2018-02-17T04:09:41.282Z,41.10
2018-02-17T04:10:41.194Z,41.00
2018-02-17T04:12:33.970Z,41.10
2018-02-17T04:13:33.913Z,41.20
2018-02-17T04:15:26.718Z,41.20
2018-02-17T04:16:26.633Z,41.00
2018-02-17T04:18:19.407Z,41.10
2018-02-17T04:19:19.348Z,41.29
2018-02-17T04:21:12.155Z,41.10
2018-02-17T04:22:12.067Z,41.20
2018-02-17T04:24:04.841Z,41.10
2018-02-17T04:25:04.785Z,41.20
2018-02-17T04:26:57.588Z,41.10
2018-02-17T04:27:57.500Z,41.10
2018-02-17T04:29:50.274Z,41.10
2018-02-17T04:30:50.217Z,41.00
2018-02-17T04:32:43.021Z,41.10
2018-02-17T04:33:42.935Z,41.39
2018-02-17T04:35:35.705Z,41.29
2018-02-17T04:36:35.649Z,41.20
2018-02-17T04:38:28.453Z,41.17
2018-02-17T04:39:28.366Z,40.89
2018-02-17T04:41:21.140Z,41.39
2018-02-17T04:42:21.083Z,41.20
2018-02-17T04:44:13.888Z,41.20
2018-02-17T04:45:13.803Z,41.00
2018-02-17T04:47:06.578Z,41.17
2018-02-17T04:48:06.523Z,41.37
2018-02-17T04:49:59.326Z,41.17
2018-02-17T04:50:59.237Z,41.08
2018-02-17T04:52:52.008Z,41.17
2018-02-17T04:53:51.952Z,41.27
2018-02-17T04:55:44.754Z,40.79
2018-02-17T04:56:44.687Z,41.17
2018-02-17T04:58:37.440Z,41.08
2018-02-17T04:59:37.383Z,41.17
2018-02-17T05:01:30.186Z,41.08
2018-02-17T05:02:30.101Z,41.17
2018-02-17T05:04:22.875Z,41.08
2018-02-17T05:05:22.817Z,41.17
2018-02-17T05:07:15.623Z,41.00
2018-02-17T05:08:15.534Z,41.17
2018-02-17T05:10:08.306Z,41.17
2018-02-17T05:11:08.249Z,41.37
2018-02-17T05:13:01.050Z,41.37
2018-02-17T05:14:00.963Z,41.37
2018-02-17T05:15:53.734Z,41.39
2018-02-17T05:16:53.677Z,41.37
2018-02-17T05:18:46.481Z,41.17
2018-02-17T05:19:46.395Z,40.99
2018-02-17T05:21:39.167Z,41.17
2018-02-17T05:22:39.112Z,41.17
2018-02-17T05:24:31.915Z,41.08
2018-02-17T05:25:31.825Z,41.27
2018-02-17T05:27:24.596Z,41.17
2018-02-17T05:28:24.542Z,41.17
2018-02-17T05:30:17.339Z,41.17
2018-02-17T05:31:17.253Z,41.27
2018-02-17T05:33:10.027Z,41.17
2018-02-17T05:34:09.973Z,41.17
2018-02-17T05:36:02.771Z,41.17
2018-02-17T05:37:02.684Z,41.17
2018-02-17T05:38:55.460Z,41.17
2018-02-17T05:39:55.404Z,41.17
2018-02-17T05:41:48.206Z,41.08
2018-02-17T05:42:48.121Z,41.17
2018-02-17T05:44:40.892Z,41.27
2018-02-17T05:45:40.836Z,41.17
2018-02-17T05:47:33.640Z,41.17
2018-02-17T05:48:33.553Z,41.37
2018-02-17T05:50:26.323Z,41.27
2018-02-17T05:51:26.266Z,40.70
2018-02-17T05:53:19.070Z,41.17
2018-02-17T05:54:18.982Z,40.70
2018-02-17T05:56:11.756Z,40.99
2018-02-17T05:57:11.699Z,41.27
2018-02-17T05:59:04.500Z,41.08
2018-02-17T06:00:04.413Z,41.27
2018-02-17T06:01:57.188Z,41.27
2018-02-17T06:02:57.130Z,41.17
2018-02-17T06:04:49.933Z,41.17
2018-02-17T06:05:49.845Z,41.08
2018-02-17T06:07:42.630Z,40.89
2018-02-17T06:08:42.560Z,41.27
2018-02-17T06:10:35.362Z,41.08
2018-02-17T06:11:35.276Z,41.08
2018-02-17T06:13:28.048Z,41.27
2018-02-17T06:14:27.994Z,41.27
2018-02-17T06:16:20.792Z,41.27
2018-02-17T06:17:20.705Z,41.08
2018-02-17T06:19:13.477Z,41.08
2018-02-17T06:20:13.420Z,41.17
2018-02-17T06:22:06.222Z,41.17
2018-02-17T06:23:06.135Z,41.17
2018-02-17T06:24:58.905Z,41.08
2018-02-17T06:25:58.849Z,41.08
2018-02-17T06:27:51.654Z,40.99
2018-02-17T06:28:51.566Z,40.89
2018-02-17T06:30:44.335Z,40.99
2018-02-17T06:31:44.278Z,40.99
2018-02-17T06:33:37.080Z,41.08
2018-02-17T06:34:36.992Z,40.79
2018-02-17T06:36:29.766Z,40.99
2018-02-17T06:37:29.708Z,40.89
2018-02-17T06:39:22.509Z,40.99
2018-02-17T06:40:22.424Z,41.08
2018-02-17T06:42:15.194Z,41.08
2018-02-17T06:43:15.137Z,41.08
2018-02-17T06:45:07.938Z,40.99
2018-02-17T06:46:07.856Z,41.17
2018-02-17T06:48:00.621Z,41.17
2018-02-17T06:49:00.565Z,41.27
2018-02-17T06:50:53.370Z,41.27
2018-02-17T06:51:53.284Z,41.17
2018-02-17T06:53:46.056Z,41.17
2018-02-17T06:54:45.997Z,41.17
2018-02-17T06:56:38.798Z,41.17
2018-02-17T06:57:38.715Z,41.08
2018-02-17T06:59:31.485Z,41.27
2018-02-17T07:00:31.434Z,41.17
2018-02-17T07:02:24.228Z,41.27
2018-02-17T07:03:24.142Z,40.99
2018-02-17T07:05:16.911Z,41.27
2018-02-17T07:06:16.855Z,41.17
2018-02-17T07:08:09.658Z,41.17
2018-02-17T07:09:09.570Z,41.27
2018-02-17T07:11:02.345Z,41.08
2018-02-17T07:12:02.288Z,41.27
2018-02-17T07:13:55.089Z,41.17
2018-02-17T07:14:55.003Z,40.89
2018-02-17T07:16:47.774Z,40.89
2018-02-17T07:17:47.716Z,40.89
2018-02-17T07:19:40.522Z,40.89
2018-02-17T07:20:40.433Z,40.89
2018-02-17T07:22:33.203Z,40.89
2018-02-17T07:23:33.146Z,40.89
2018-02-17T07:25:25.951Z,40.70
2018-02-17T07:26:25.858Z,40.89
2018-02-17T07:28:18.631Z,40.79
2018-02-17T07:29:18.575Z,41.08
2018-02-17T07:31:11.377Z,41.17
2018-02-17T07:32:11.291Z,41.17
2018-02-17T07:34:04.062Z,41.08
2018-02-17T07:35:04.047Z,41.27
2018-02-17T07:36:56.807Z,41.08
2018-02-17T07:37:56.720Z,41.08
2018-02-17T07:39:49.493Z,40.89
2018-02-17T07:40:49.435Z,41.17
2018-02-17T07:42:42.237Z,41.08
2018-02-17T07:43:42.150Z,41.08
2018-02-17T07:45:34.925Z,41.16
2018-02-17T07:46:34.865Z,40.99
2018-02-17T07:48:27.670Z,40.67
2018-02-17T07:49:27.581Z,41.06
2018-02-17T07:51:20.354Z,41.17
2018-02-17T07:52:20.304Z,41.06
2018-02-17T07:54:13.102Z,40.89
2018-02-17T07:55:13.013Z,40.79
2018-02-17T07:57:05.788Z,40.99
2018-02-17T07:58:05.729Z,40.96
2018-02-17T07:59:58.533Z,40.79
2018-02-17T08:00:58.447Z,40.70
2018-02-17T08:02:51.218Z,40.87
2018-02-17T08:03:51.160Z,41.06
2018-02-17T08:05:43.961Z,40.79
2018-02-17T08:06:43.874Z,40.99
2018-02-17T08:08:36.645Z,40.70
2018-02-17T08:09:36.590Z,40.79
2018-02-17T08:11:29.391Z,40.99
2018-02-17T08:12:29.304Z,40.87
2018-02-17T08:14:22.080Z,40.89
2018-02-17T08:15:22.022Z,41.06
2018-02-17T08:17:14.825Z,40.96
2018-02-17T08:18:14.737Z,40.87
2018-02-17T08:20:07.510Z,40.70
2018-02-17T08:21:07.453Z,40.96
2018-02-17T08:23:00.255Z,40.99
2018-02-17T08:24:00.168Z,40.96
2018-02-17T08:25:52.941Z,40.96
2018-02-17T08:26:52.883Z,40.79
2018-02-17T08:28:45.687Z,40.99
2018-02-17T08:29:45.602Z,40.89
2018-02-17T08:31:38.376Z,40.96
2018-02-17T08:32:38.317Z,40.77
2018-02-17T08:34:31.118Z,40.89
2018-02-17T08:35:31.034Z,40.96
2018-02-17T08:37:23.803Z,40.89
2018-02-17T08:38:23.745Z,40.87
2018-02-17T08:40:16.549Z,40.96
2018-02-17T08:41:16.461Z,41.08
2018-02-17T08:43:09.232Z,41.06
2018-02-17T08:44:09.178Z,40.77
2018-02-17T08:46:01.979Z,40.96
2018-02-17T08:47:01.891Z,40.77
2018-02-17T08:48:54.664Z,41.16
2018-02-17T08:49:54.608Z,40.87
2018-02-17T08:51:47.412Z,40.87
2018-02-17T08:52:47.324Z,40.87
2018-02-17T08:54:40.096Z,40.96
2018-02-17T08:55:40.039Z,40.67
2018-02-17T08:57:32.843Z,40.87
2018-02-17T08:58:32.754Z,40.79
2018-02-17T09:00:25.528Z,40.89
2018-02-17T09:01:25.470Z,40.87
2018-02-17T09:03:18.271Z,40.96
2018-02-17T09:04:18.187Z,40.89
2018-02-17T09:06:10.957Z,40.79
2018-02-17T09:07:10.900Z,40.77
2018-02-17T09:09:03.707Z,40.77
2018-02-17T09:10:03.617Z,40.79
2018-02-17T09:11:56.388Z,40.77
2018-02-17T09:12:56.332Z,40.77
2018-02-17T09:14:49.132Z,40.67
2018-02-17T09:15:49.050Z,40.87
2018-02-17T09:17:41.817Z,40.96
2018-02-17T09:18:41.759Z,40.89
2018-02-17T09:20:34.593Z,40.87
2018-02-17T09:21:34.507Z,40.89
2018-02-17T09:23:27.278Z,40.96
2018-02-17T09:24:27.222Z,40.87
2018-02-17T09:26:20.023Z,40.96
2018-02-17T09:27:19.934Z,40.89
2018-02-17T09:29:12.707Z,40.67
2018-02-17T09:30:12.649Z,40.67
2018-02-17T09:32:05.450Z,40.67
2018-02-17T09:33:05.364Z,40.87
2018-02-17T09:34:58.135Z,40.77
2018-02-17T09:35:58.077Z,40.79
2018-02-17T09:37:50.881Z,40.77
2018-02-17T09:38:50.793Z,40.77
2018-02-17T09:40:43.595Z,40.48
2018-02-17T09:41:43.511Z,40.60
2018-02-17T09:43:36.313Z,40.58
2018-02-17T09:44:36.224Z,40.48
2018-02-17T09:46:28.996Z,40.39
2018-02-17T09:47:28.938Z,40.39
2018-02-17T09:49:21.740Z,40.39
2018-02-17T09:50:21.654Z,40.39
2018-02-17T09:52:14.426Z,40.67
2018-02-17T09:53:14.414Z,40.39
2018-02-17T09:55:07.179Z,40.48
2018-02-17T09:56:07.084Z,40.58
2018-02-17T09:57:59.859Z,40.77
2018-02-17T09:58:59.802Z,40.77
2018-02-17T10:00:52.606Z,40.39
2018-02-17T10:01:52.518Z,40.39
2018-02-17T10:03:45.290Z,40.58
2018-02-17T10:04:45.232Z,40.77
2018-02-17T10:06:38.035Z,40.29
2018-02-17T10:07:37.948Z,40.67
2018-02-17T10:09:30.721Z,40.77
2018-02-17T10:10:30.665Z,40.60
2018-02-17T10:12:23.468Z,40.67
2018-02-17T10:13:23.380Z,40.77
2018-02-17T10:15:16.152Z,40.77
2018-02-17T10:16:16.097Z,40.67
2018-02-17T10:18:08.900Z,40.79
2018-02-17T10:19:08.811Z,40.87
2018-02-17T10:21:01.584Z,40.87
2018-02-17T10:22:01.525Z,40.89
2018-02-17T10:23:54.326Z,40.87
2018-02-17T10:24:54.242Z,40.67
2018-02-17T10:26:47.008Z,40.77
2018-02-17T10:27:46.954Z,40.77
2018-02-17T10:29:39.759Z,40.87
2018-02-17T10:30:39.671Z,40.96
2018-02-17T10:32:32.443Z,40.77
2018-02-17T10:33:32.386Z,40.48
2018-02-17T10:35:25.240Z,40.58
2018-02-17T10:36:25.102Z,40.67
2018-02-17T10:38:17.874Z,40.48
2018-02-17T10:39:17.817Z,40.70
2018-02-17T10:41:10.620Z,40.48
2018-02-17T10:42:10.532Z,40.29
2018-02-17T10:44:03.302Z,40.77
2018-02-17T10:45:03.246Z,40.77
2018-02-17T10:46:56.049Z,40.67
2018-02-17T10:47:55.961Z,40.96
2018-02-17T10:49:48.731Z,40.87
2018-02-17T10:50:48.674Z,40.67
2018-02-17T10:52:41.474Z,40.67
2018-02-17T10:53:41.390Z,40.87
2018-02-17T10:55:34.158Z,40.67
2018-02-17T10:56:34.100Z,40.58
2018-02-17T10:58:26.902Z,40.87
2018-02-17T10:59:26.814Z,40.67
2018-02-17T11:01:19.587Z,40.87
2018-02-17T11:02:19.531Z,40.67
2018-02-17T11:04:12.335Z,40.77
2018-02-17T11:05:12.246Z,40.58
2018-02-17T11:07:05.021Z,40.48
2018-02-17T11:08:04.960Z,40.58
2018-02-17T11:09:57.764Z,40.39
2018-02-17T11:10:57.677Z,40.39
2018-02-17T11:12:50.450Z,40.39
2018-02-17T11:13:50.392Z,39.81
2018-02-17T11:15:43.196Z,40.12
2018-02-17T11:16:43.107Z,40.02
2018-02-17T11:18:35.880Z,39.73
2018-02-17T11:19:35.824Z,39.73
2018-02-17T11:21:28.628Z,39.45
2018-02-17T11:22:28.542Z,39.16
2018-02-17T11:24:21.332Z,39.35
2018-02-17T11:25:21.279Z,39.08
2018-02-17T11:27:14.068Z,38.99
2018-02-17T11:28:13.980Z,39.28
2018-02-17T11:30:06.753Z,38.70
2018-02-17T11:31:06.696Z,38.51
2018-02-17T11:32:59.498Z,38.60
2018-02-17T11:33:59.411Z,38.79
2018-02-17T11:35:52.182Z,38.34
2018-02-17T11:36:52.125Z,38.43
2018-02-17T11:38:44.930Z,38.43
2018-02-17T11:39:44.842Z,38.43
2018-02-17T11:41:37.618Z,38.62
2018-02-17T11:42:37.562Z,38.43
2018-02-17T11:44:30.362Z,38.45
2018-02-17T11:45:30.277Z,38.54
2018-02-17T11:47:23.049Z,38.64
2018-02-17T11:48:22.997Z,38.54
2018-02-17T11:50:15.796Z,38.26
2018-02-17T11:51:15.709Z,39.03
2018-02-17T11:53:08.482Z,39.43
2018-02-17T11:54:08.425Z,39.43
2018-02-17T11:56:01.230Z,40.39
2018-02-17T11:57:01.141Z,40.39
2018-02-17T11:58:53.914Z,40.41
2018-02-17T11:59:53.858Z,40.12
2018-02-17T12:01:46.663Z,40.51
2018-02-17T12:02:46.577Z,41.28
2018-02-17T12:04:39.349Z,40.41
2018-02-17T12:05:39.294Z,40.22
2018-02-17T12:07:32.098Z,40.89
2018-02-17T12:08:32.011Z,40.43
2018-02-17T12:10:24.788Z,39.09
2018-02-17T12:11:24.731Z,39.56
2018-02-17T12:13:17.540Z,39.86
2018-02-17T12:14:17.449Z,39.87
2018-02-17T12:16:10.225Z,40.16
2018-02-17T12:17:10.171Z,39.59
2018-02-17T12:19:02.993Z,39.78
2018-02-17T12:20:02.893Z,40.55
2018-02-17T12:21:55.674Z,40.07
2018-02-17T12:22:55.614Z,40.72
2018-02-17T12:24:48.421Z,40.63
2018-02-17T12:25:48.335Z,40.45
2018-02-17T12:27:41.112Z,40.55
2018-02-17T12:28:41.057Z,40.55
2018-02-17T12:30:33.865Z,40.74
2018-02-17T12:31:33.780Z,40.16
2018-02-17T12:33:26.558Z,40.36
2018-02-17T12:34:26.504Z,39.97
2018-02-17T12:36:19.313Z,39.68
2018-02-17T12:37:19.228Z,39.78
2018-02-17T12:39:12.006Z,39.49
2018-02-17T12:40:11.951Z,39.29
2018-02-17T12:42:04.759Z,39.59
2018-02-17T12:43:04.675Z,39.87
2018-02-17T12:44:57.452Z,39.29
2018-02-17T12:45:57.397Z,39.41
2018-02-17T12:47:50.205Z,39.20
2018-02-17T12:48:50.127Z,39.01
2018-02-17T12:50:42.899Z,38.83
2018-02-17T12:51:42.844Z,38.83
2018-02-17T12:53:35.653Z,38.45
2018-02-17T12:54:35.590Z,38.54
2018-02-17T12:56:28.347Z,38.35
2018-02-17T12:57:28.292Z,38.35
2018-02-17T12:59:21.100Z,38.35
2018-02-17T13:00:21.017Z,38.35
2018-02-17T13:02:13.795Z,38.35
2018-02-17T13:03:13.740Z,38.16
2018-02-17T13:05:06.548Z,38.16
2018-02-17T13:06:06.463Z,37.87
2018-02-17T13:07:59.241Z,37.48
2018-02-17T13:08:59.186Z,37.58
2018-02-17T13:10:51.997Z,37.87
2018-02-17T13:11:51.912Z,37.96
2018-02-17T13:13:44.732Z,37.96
2018-02-17T13:14:44.638Z,37.68
2018-02-17T13:16:37.448Z,37.79
2018-02-17T13:17:37.365Z,37.60
2018-02-17T13:19:30.144Z,37.39
2018-02-17T13:20:30.090Z,37.50
2018-02-17T13:22:22.905Z,37.21
2018-02-17T13:23:22.815Z,37.19
2018-02-17T13:25:15.593Z,37.12
2018-02-17T13:26:15.542Z,37.21
2018-02-17T13:28:08.348Z,37.12
2018-02-17T13:29:08.265Z,37.12
2018-02-17T13:31:01.045Z,37.12
2018-02-17T13:32:00.993Z,36.93
2018-02-17T13:33:53.803Z,36.83
2018-02-17T13:34:53.718Z,36.73
2018-02-17T13:36:46.519Z,36.73
2018-02-17T13:37:46.447Z,37.02
2018-02-17T13:39:39.256Z,36.73
2018-02-17T13:40:39.173Z,36.73
2018-02-17T13:42:31.953Z,36.63
2018-02-17T13:43:31.901Z,36.73
2018-02-17T13:45:24.708Z,36.63
2018-02-17T13:46:24.624Z,36.06
2018-02-17T13:48:17.404Z,36.54
2018-02-17T13:49:17.351Z,36.25
2018-02-17T13:51:10.163Z,36.54
2018-02-17T13:52:10.076Z,36.63
2018-02-17T13:54:02.857Z,36.54
2018-02-17T13:55:02.803Z,36.44
2018-02-17T13:56:55.616Z,35.77
2018-02-17T13:57:55.531Z,36.63
2018-02-17T13:59:48.313Z,36.55
2018-02-17T14:00:48.254Z,36.27
2018-02-17T14:02:41.065Z,36.36
2018-02-17T14:03:40.981Z,35.59
2018-02-17T14:05:33.762Z,35.98
2018-02-17T14:06:33.709Z,35.98
2018-02-17T14:08:26.535Z,35.88
2018-02-17T14:09:26.442Z,35.90
2018-02-17T14:11:19.216Z,35.52
2018-02-17T14:12:19.165Z,35.61
2018-02-17T14:14:11.973Z,35.42
2018-02-17T14:15:11.896Z,35.42
2018-02-17T14:17:04.675Z,35.22
2018-02-17T14:18:04.620Z,35.32
2018-02-17T14:19:57.430Z,35.05
2018-02-17T14:20:57.348Z,35.05
2018-02-17T14:22:50.161Z,35.24
2018-02-17T14:23:50.077Z,34.95
2018-02-17T14:25:42.888Z,34.76
2018-02-17T14:26:42.806Z,34.76
2018-02-17T14:28:35.588Z,34.76
2018-02-17T14:29:35.534Z,34.66
2018-02-17T14:31:28.347Z,34.86
2018-02-17T14:32:28.265Z,34.87
2018-02-17T14:34:21.046Z,34.95
2018-02-17T14:35:20.994Z,34.68
2018-02-17T14:37:13.808Z,34.87
2018-02-17T14:38:13.725Z,34.87
2018-02-17T14:40:06.525Z,34.78
2018-02-17T14:41:06.454Z,34.97
2018-02-17T14:42:59.272Z,35.06
2018-02-17T14:43:59.187Z,34.86
2018-02-17T14:45:51.972Z,35.06
2018-02-17T14:46:51.921Z,34.87
2018-02-17T14:48:44.730Z,34.86
2018-02-17T14:49:44.647Z,34.66
2018-02-17T14:51:37.432Z,35.24
2018-02-17T14:52:37.379Z,34.68
2018-02-17T14:54:30.193Z,35.24
2018-02-17T14:55:30.145Z,34.95
2018-02-17T14:57:22.893Z,35.05
2018-02-17T14:58:22.843Z,35.14
2018-02-17T15:00:15.656Z,35.14
2018-02-17T15:01:15.570Z,34.95
2018-02-17T15:03:08.351Z,34.95
2018-02-17T15:04:08.298Z,34.95
2018-02-17T15:06:01.111Z,35.14
2018-02-17T15:07:01.031Z,35.14
2018-02-17T15:08:53.813Z,35.24
2018-02-17T15:09:53.802Z,35.44
2018-02-17T15:11:46.602Z,35.34
2018-02-17T15:12:46.520Z,35.24
2018-02-17T15:14:39.307Z,35.44
2018-02-17T15:15:39.252Z,35.44
2018-02-17T15:17:32.064Z,35.44
2018-02-17T15:18:31.982Z,35.72
2018-02-17T15:20:24.762Z,35.92
2018-02-17T15:21:24.710Z,35.44
2018-02-17T15:23:17.524Z,35.72
2018-02-17T15:24:17.443Z,35.53
2018-02-17T15:26:10.221Z,35.82
2018-02-17T15:27:10.169Z,35.53
2018-02-17T15:29:02.983Z,35.63
2018-02-17T15:30:02.901Z,35.92
2018-02-17T15:31:55.685Z,35.63
2018-02-17T15:32:55.632Z,35.63
2018-02-17T15:34:48.470Z,35.63
2018-02-17T15:35:48.365Z,35.82
2018-02-17T15:37:41.148Z,35.92
2018-02-17T15:38:41.104Z,35.72
2018-02-17T15:40:33.911Z,35.72
2018-02-17T15:41:33.824Z,35.82
2018-02-17T15:43:26.608Z,35.82
2018-02-17T15:44:26.556Z,35.82
2018-02-17T15:46:19.370Z,35.53
2018-02-17T15:47:19.286Z,35.53
2018-02-17T15:49:12.071Z,35.72
2018-02-17T15:50:12.022Z,35.53
2018-02-17T15:52:04.832Z,35.34
2018-02-17T15:53:04.749Z,35.44
2018-02-17T15:54:57.528Z,35.34
2018-02-17T15:55:57.477Z,35.34
2018-02-17T15:57:50.293Z,35.34
2018-02-17T15:58:50.208Z,35.44
2018-02-17T16:00:42.989Z,35.34
2018-02-17T16:01:42.941Z,35.34
2018-02-17T16:03:35.749Z,35.44
2018-02-17T16:04:35.667Z,35.44
2018-02-17T16:06:28.453Z,35.24
2018-02-17T16:07:28.399Z,35.24
2018-02-17T16:09:21.214Z,35.14
2018-02-17T16:10:21.130Z,35.14
2018-02-17T16:12:13.912Z,35.24
2018-02-17T16:13:13.863Z,35.14
2018-02-17T16:15:06.671Z,35.24
2018-02-17T16:16:06.589Z,35.05
2018-02-17T16:17:59.372Z,35.05
2018-02-17T16:18:59.319Z,35.44
2018-02-17T16:20:52.134Z,35.24
2018-02-17T16:21:52.071Z,35.14
2018-02-17T16:23:44.833Z,35.14
2018-02-17T16:24:44.777Z,35.53
2018-02-17T16:26:37.606Z,35.44
2018-02-17T16:27:37.506Z,35.92
2018-02-17T16:29:30.288Z,35.63
2018-02-17T16:30:30.236Z,35.92
2018-02-17T16:32:23.049Z,35.63
2018-02-17T16:33:23.014Z,36.00
2018-02-17T16:35:15.747Z,36.21
2018-02-17T16:36:15.696Z,35.63
2018-02-17T16:38:08.506Z,36.98
2018-02-17T16:39:08.423Z,36.11
2018-02-17T16:41:01.205Z,37.17
2018-02-17T16:42:01.152Z,38.14
2018-02-17T16:43:53.968Z,39.78
2018-02-17T16:44:53.880Z,40.55
2018-02-17T16:46:46.662Z,41.81
2018-02-17T16:47:46.612Z,42.48
2018-02-17T16:49:39.420Z,43.54
2018-02-17T16:50:39.338Z,43.93
2018-02-17T16:52:32.123Z,43.54
2018-02-17T16:53:32.070Z,42.19
2018-02-17T16:55:24.883Z,42.58
2018-02-17T16:56:24.800Z,42.29
2018-02-17T16:58:17.583Z,42.00
2018-02-17T16:59:17.529Z,42.39
2018-02-17T17:01:10.342Z,42.00
2018-02-17T17:02:10.261Z,42.39
2018-02-17T17:04:03.041Z,42.39
2018-02-17T17:05:02.991Z,42.48
2018-02-17T17:06:55.801Z,42.97
2018-02-17T17:07:55.725Z,42.68
2018-02-17T17:09:48.504Z,42.87
2018-02-17T17:10:48.451Z,42.77
2018-02-17T17:12:41.264Z,42.77
2018-02-17T17:13:41.181Z,42.29
2018-02-17T17:15:33.964Z,42.68
2018-02-17T17:16:33.914Z,43.16
2018-02-17T17:18:26.725Z,42.19
2018-02-17T17:19:26.642Z,42.97
2018-02-17T17:21:19.425Z,42.77
2018-02-17T17:22:19.375Z,42.77
2018-02-17T17:24:12.184Z,42.77
2018-02-17T17:25:12.102Z,43.26
2018-02-17T17:27:04.884Z,42.97
2018-02-17T17:28:04.832Z,42.97
2018-02-17T17:29:57.648Z,43.24
2018-02-17T17:30:57.563Z,43.06
2018-02-17T17:32:50.348Z,43.06
2018-02-17T17:33:50.297Z,43.16
2018-02-17T17:35:43.106Z,43.26
2018-02-17T17:36:43.023Z,43.16
2018-02-17T17:38:35.801Z,43.64
2018-02-17T17:39:35.750Z,43.26
2018-02-17T17:41:28.561Z,42.94
2018-02-17T17:42:28.476Z,44.59
2018-02-17T17:44:21.254Z,42.36
2018-02-17T17:45:21.235Z,42.56
2018-02-17T17:47:14.012Z,42.18
2018-02-17T17:48:13.927Z,42.66
2018-02-17T17:50:06.708Z,41.98
2018-02-17T17:51:06.653Z,41.88
2018-02-17T17:52:59.470Z,41.60
2018-02-17T17:53:59.417Z,41.78
2018-02-17T17:55:52.158Z,41.69
2018-02-17T17:56:52.105Z,41.69
2018-02-17T17:58:44.915Z,41.60
2018-02-17T17:59:44.833Z,41.88
2018-02-17T18:01:37.612Z,42.08
2018-02-17T18:02:37.560Z,42.08
2018-02-17T18:04:30.372Z,42.75
2018-02-17T18:05:30.290Z,42.18
2018-02-17T18:07:23.066Z,42.46
2018-02-17T18:08:23.012Z,42.27
2018-02-17T18:10:15.823Z,42.36
2018-02-17T18:11:15.738Z,42.66
2018-02-17T18:13:08.517Z,43.81
2018-02-17T18:14:08.464Z,43.81
2018-02-17T18:16:01.273Z,43.91
2018-02-17T18:17:01.188Z,43.72
2018-02-17T18:18:53.968Z,43.81
2018-02-17T18:19:53.913Z,43.72
2018-02-17T18:21:46.724Z,43.52
2018-02-17T18:22:46.639Z,43.52
2018-02-17T18:24:39.423Z,43.33
2018-02-17T18:25:39.367Z,43.43
2018-02-17T18:27:32.176Z,43.81
2018-02-17T18:28:32.091Z,44.10
2018-02-17T18:30:24.871Z,42.97
2018-02-17T18:31:24.817Z,42.27